Time;durP1;ratioP1;P1;durP2;ratioP2;P2;SDS_P1;SDS_P2;PMS_P1;PMS_P2;Temp;Humidity;BMP_temperature;BMP_pressure;BME280_temperature;BME280_humidity;BME280_pressure;Samples;Min_cycle;Max_cycle;Signal;HPM_P1;HPM_P2
2022/05/24 00:02:14;;;;;;;21.33;15.35;;;;;;;14.44;100.00;100015.75;4990396;28;20042;-61
2022/05/24 00:04:42;;;;;;;20.38;15.25;;;;;;;14.33;100.00;100011.50;4986272;28;20104;-61
2022/05/24 00:07:11;;;;;;;21.35;14.95;;;;;;;14.43;100.00;100003.53;4986047;28;20509;-61
2022/05/24 00:09:39;;;;;;;19.98;15.10;;;;;;;14.38;100.00;100001.31;4989846;28;20062;-61
2022/05/24 00:12:08;;;;;;;18.67;14.60;;;;;;;14.43;100.00;99996.41;4990685;28;20038;-62
2022/05/24 00:17:23;;;;;;;20.42;16.20;;;;;;;14.36;100.00;99985.59;4990037;28;20061;-61
2022/05/24 00:19:51;;;;;;;21.90;16.20;;;;;;;14.43;100.00;99991.13;4986872;28;20054;-61
2022/05/24 00:22:19;;;;;;;20.42;15.45;;;;;;;14.48;100.00;100010.06;4986247;28;20133;-61
2022/05/24 00:24:47;;;;;;;22.42;15.93;;;;;;;14.51;100.00;100003.63;4989898;28;20081;-61
2022/05/24 00:27:16;;;;;;;24.13;16.63;;;;;;;14.57;100.00;100012.81;4990202;28;20498;-61
2022/05/24 00:29:46;;;;;;;21.58;16.52;;;;;;;14.58;100.00;100017.94;4990672;28;20054;-61
2022/05/24 00:32:14;;;;;;;21.70;16.73;;;;;;;14.60;100.00;100005.41;4987934;28;20528;-61
2022/05/24 00:34:42;;;;;;;23.05;16.98;;;;;;;14.51;100.00;100007.09;4987220;28;20058;-61
2022/05/24 00:37:11;;;;;;;25.02;17.88;;;;;;;14.47;100.00;100007.56;4990135;28;20045;-61
2022/05/24 00:39:39;;;;;;;22.77;17.52;;;;;;;14.51;100.00;100001.00;4990120;28;20050;-61
2022/05/24 00:42:13;;;;;;;21.08;17.33;;;;;;;14.50;100.00;99999.31;4989480;28;20527;-61
2022/05/24 00:44:46;;;;;;;25.02;18.90;;;;;;;14.43;100.00;99999.06;4990509;28;20046;-61
2022/05/24 00:47:24;;;;;;;24.63;20.50;;;;;;;14.46;100.00;99988.19;4988397;28;20046;-61
2022/05/24 00:49:57;;;;;;;26.20;20.50;;;;;;;14.49;100.00;99995.84;4989572;28;20065;-61
2022/05/24 00:52:30;;;;;;;30.20;22.50;;;;;;;14.49;100.00;99981.78;4990307;28;20093;-60
2022/05/24 00:55:05;;;;;;;31.02;23.40;;;;;;;14.52;100.00;99997.38;4990311;28;20047;-60
2022/05/24 00:57:36;;;;;;;27.98;21.33;;;;;;;14.50;100.00;99996.69;4991410;28;20450;-59
2022/05/24 01:00:08;;;;;;;32.05;23.48;;;;;;;14.45;100.00;99990.97;4991443;28;20390;-60
2022/05/24 01:02:41;;;;;;;30.40;24.10;;;;;;;14.41;100.00;99990.47;4993327;28;20050;-61
2022/05/24 01:05:12;;;;;;;30.50;24.45;;;;;;;14.47;100.00;99989.84;4992175;28;20061;-61
2022/05/24 01:07:40;;;;;;;33.08;22.95;;;;;;;14.37;100.00;99994.38;4990063;28;20050;-60
2022/05/24 01:10:12;;;;;;;30.52;24.63;;;;;;;14.39;100.00;99994.22;4989940;28;20038;-60
2022/05/24 01:12:45;;;;;;;31.02;24.27;;;;;;;14.30;100.00;99994.13;4993506;28;20051;-62
2022/05/24 01:15:14;;;;;;;;;;;;;;;14.30;100.00;99996.75;4993827;28;20378;-62
2022/05/24 01:17:45;;;;;;;28.50;21.88;;;;;;;14.34;100.00;99992.00;4993825;28;19976;-62
2022/05/24 01:20:14;;;;;;;29.80;22.10;;;;;;;14.33;100.00;99993.00;4993651;28;20044;-61
2022/05/24 01:22:57;;;;;;;32.03;23.50;;;;;;;14.36;100.00;99987.41;4991433;28;20699;-62
2022/05/24 01:25:31;;;;;;;33.33;24.13;;;;;;;14.26;100.00;99997.19;4991471;28;20393;-62
2022/05/24 01:28:03;;;;;;;31.48;23.77;;;;;;;14.30;100.00;99999.41;4993892;28;20050;-62
2022/05/24 01:30:31;;;;;;;35.90;24.30;;;;;;;14.27;100.00;99991.75;4991765;28;20485;-61
2022/05/24 01:38:32;;;;;;;33.05;25.48;;;;;;;14.15;100.00;99998.19;4993966;28;20437;-62
2022/05/24 01:41:01;;;;;;;35.47;26.08;;;;;;;14.07;100.00;99996.28;4992769;28;20382;-62
2022/05/24 01:43:32;;;;;;;36.45;27.00;;;;;;;14.06;100.00;99988.47;4991483;28;20057;-61
2022/05/24 01:46:03;;;;;;;33.47;26.15;;;;;;;14.00;100.00;99982.78;4987676;28;20085;-61
2022/05/24 01:48:34;;;;;;;33.67;25.90;;;;;;;13.98;100.00;99979.44;4990848;28;20109;-62
2022/05/24 01:51:04;;;;;;;33.60;25.75;;;;;;;13.92;100.00;99982.69;4988183;28;20502;-62
2022/05/24 01:53:37;;;;;;;39.28;25.50;;;;;;;13.74;100.00;99985.19;4991111;28;20382;-61
2022/05/24 01:56:32;;;;;;;34.22;23.25;;;;;;;13.82;100.00;99984.50;4990866;28;20042;-60
2022/05/24 01:59:03;;;;;;;30.13;22.77;;;;;;;13.76;100.00;99979.78;4992921;28;20050;-61
2022/05/24 02:01:40;;;;;;;30.42;23.38;;;;;;;13.78;100.00;99983.09;4988533;28;20104;-62
2022/05/24 02:04:08;;;;;;;30.45;23.42;;;;;;;13.76;100.00;99982.44;4988957;28;20050;-62
2022/05/24 02:06:36;;;;;;;33.30;23.23;;;;;;;13.68;100.00;99997.16;4992719;28;20054;-62
2022/05/24 02:09:06;;;;;;;34.33;23.77;;;;;;;13.67;100.00;99990.22;4992838;28;20061;-62
2022/05/24 02:11:35;;;;;;;32.15;23.42;;;;;;;13.64;100.00;99982.56;4992778;28;20070;-61
2022/05/24 02:14:12;;;;;;;31.83;21.60;;;;;;;13.66;100.00;99988.56;4992597;28;20050;-62
2022/05/24 02:16:47;;;;;;;27.90;21.13;;;;;;;13.63;100.00;99993.28;4992826;28;20050;-61
2022/05/24 02:19:17;;;;;;;27.67;20.55;;;;;;;13.68;100.00;99988.41;4989123;28;20053;-59
2022/05/24 02:21:47;;;;;;;26.45;18.00;;;;;;;13.66;100.00;99985.06;4988558;28;20050;-61
2022/05/24 02:24:18;;;;;;;27.27;18.38;;;;;;;13.56;100.00;99989.53;4992630;28;20066;-60
2022/05/24 02:26:47;;;;;;;26.80;16.98;;;;;;;13.46;100.00;99995.66;4992572;28;20529;-61
2022/05/24 02:29:18;;;;;;;23.67;15.00;;;;;;;13.45;100.00;99996.63;4991784;28;20038;-60
2022/05/24 02:31:46;;;;;;;20.35;13.30;;;;;;;13.32;100.00;99983.69;4988241;28;20502;-61
2022/05/24 02:34:16;;;;;;;21.45;12.40;;;;;;;13.41;100.00;99994.41;4987654;28;20049;-61
2022/05/24 02:36:44;;;;;;;21.15;12.15;;;;;;;13.45;100.00;100001.06;4991401;28;20101;-61
2022/05/24 02:39:12;;;;;;;17.85;11.32;;;;;;;13.39;100.00;100006.91;4991996;28;20493;-61
2022/05/24 02:41:39;;;;;;;17.17;9.98;;;;;;;13.27;100.00;100001.72;4991809;28;20048;-61
2022/05/24 02:44:10;;;;;;;16.40;9.88;;;;;;;13.30;100.00;100000.63;4991386;28;20486;-61
2022/05/24 02:46:41;;;;;;;14.07;9.38;;;;;;;13.14;100.00;100002.00;4991809;28;20046;-61
2022/05/24 02:49:10;;;;;;;15.00;8.48;;;;;;;13.10;100.00;100005.91;4990478;28;20082;-61
2022/05/24 02:51:39;;;;;;;13.70;8.13;;;;;;;13.08;100.00;100004.38;4990287;28;20096;-60
2022/05/24 02:54:10;;;;;;;12.98;7.78;;;;;;;13.06;100.00;100004.50;4992160;28;20154;-59
2022/05/24 02:56:38;;;;;;;12.27;6.82;;;;;;;13.02;100.00;100003.94;4992046;28;20069;-60
2022/05/24 02:59:06;;;;;;;13.63;7.20;;;;;;;12.93;100.00;100009.19;4985906;28;20133;-60
2022/05/24 03:01:34;;;;;;;13.35;7.10;;;;;;;12.94;100.00;100013.47;4987292;28;20050;-61
2022/05/24 03:04:04;;;;;;;15.43;7.05;;;;;;;12.86;100.00;100014.19;4991486;28;20049;-60
2022/05/24 03:09:33;;;;;;;13.05;7.40;;;;;;;12.81;100.00;100005.81;4991128;28;20038;-61
2022/05/24 03:09:33;;;;;;;14.10;6.53;;;;;;;12.75;100.00;100011.63;4989860;28;20050;-60
2022/05/24 03:14:49;;;;;;;12.05;6.00;;;;;;;12.62;100.00;100020.59;4991729;28;20385;-60
2022/05/24 03:17:17;;;;;;;14.65;5.85;;;;;;;12.64;100.00;100009.94;4987999;28;20050;-60
2022/05/24 03:19:47;;;;;;;12.60;5.88;;;;;;;12.66;100.00;100008.00;4988408;28;20081;-60
2022/05/24 03:22:16;;;;;;;11.68;5.45;;;;;;;12.66;100.00;100003.53;4990835;28;20041;-61
2022/05/24 03:24:44;;;;;;;12.40;5.70;;;;;;;12.61;100.00;100002.28;4991348;28;20062;-60
2022/05/24 03:27:13;;;;;;;9.70;5.13;;;;;;;12.61;100.00;99995.22;4988997;28;20050;-61
2022/05/24 03:29:43;;;;;;;10.45;4.70;;;;;;;12.63;100.00;99989.81;4982572;28;20050;-61
2022/05/24 03:32:13;;;;;;;11.07;5.80;;;;;;;12.60;100.00;99996.19;4977400;28;20361;-61
2022/05/24 03:34:43;;;;;;;13.13;6.10;;;;;;;12.58;100.00;100003.38;4990982;28;20050;-61
2022/05/24 03:37:13;;;;;;;13.27;5.78;;;;;;;12.50;100.00;100000.56;4990831;28;21156;-60
2022/05/24 03:39:41;;;;;;;12.10;5.88;;;;;;;12.59;100.00;99998.97;4989258;28;20058;-61
2022/05/24 03:42:10;;;;;;;15.60;6.10;;;;;;;12.55;100.00;100005.47;4986933;28;20042;-61
2022/05/24 03:44:38;;;;;;;12.40;6.25;;;;;;;12.53;100.00;100000.31;4991475;28;20077;-60
2022/05/24 03:47:07;;;;;;;11.38;6.32;;;;;;;12.42;100.00;100006.53;4987698;28;20038;-61
2022/05/24 03:49:35;;;;;;;12.93;6.15;;;;;;;12.42;100.00;100008.31;4987035;28;20042;-60
2022/05/24 03:52:03;;;;;;;15.02;6.05;;;;;;;12.43;100.00;100002.91;4989122;28;20038;-61
2022/05/24 03:54:33;;;;;;;13.45;6.22;;;;;;;12.43;100.00;99996.81;4988655;28;20046;-61
2022/05/24 03:59:47;;;;;;;11.27;5.70;;;;;;;12.48;100.00;99989.34;4990740;28;20097;-61
2022/05/24 04:02:15;;;;;;;12.52;6.13;;;;;;;12.47;100.00;99996.41;4990237;28;20066;-61
2022/05/24 04:04:43;;;;;;;10.25;5.20;;;;;;;12.47;100.00;99988.47;4990979;28;20053;-61
2022/05/24 04:07:12;;;;;;;11.43;5.80;;;;;;;12.53;100.00;99992.41;4987506;28;20046;-61
2022/05/24 04:09:41;;;;;;;13.10;5.60;;;;;;;12.55;100.00;100005.47;4990046;28;20055;-59
2022/05/24 04:12:10;;;;;;;13.40;6.57;;;;;;;12.59;100.00;100023.50;4987591;28;20051;-60
2022/05/24 04:14:38;;;;;;;11.93;5.70;;;;;;;12.61;100.00;100032.16;4988054;28;20050;-60
2022/05/24 04:17:06;;;;;;;15.60;6.10;;;;;;;12.55;100.00;100034.47;4990826;28;20039;-59
2022/05/24 04:19:34;;;;;;;15.90;6.25;;;;;;;12.54;100.00;100033.63;4987369;28;20093;-60
2022/05/24 04:22:03;;;;;;;14.20;6.13;;;;;;;12.48;100.00;100042.09;4987763;28;20053;-59
2022/05/24 04:24:31;;;;;;;12.40;6.35;;;;;;;12.44;100.00;100041.50;4990362;28;20502;-61
2022/05/24 04:27:00;;;;;;;12.30;6.05;;;;;;;12.51;100.00;100050.53;4990682;28;20069;-60
2022/05/24 04:29:28;;;;;;;12.27;6.15;;;;;;;12.51;100.00;100058.47;4990343;28;20058;-60
2022/05/24 04:31:56;;;;;;;13.63;6.82;;;;;;;12.51;100.00;100066.38;4989783;28;20068;-61
2022/05/24 04:34:24;;;;;;;17.10;7.57;;;;;;;12.49;100.00;100078.03;4993010;28;20054;-60
2022/05/24 04:36:52;;;;;;;14.50;7.10;;;;;;;12.51;100.00;100081.38;4991133;28;20054;-61
2022/05/24 04:39:21;;;;;;;12.23;6.38;;;;;;;12.56;100.00;100097.66;4991560;28;20046;-61
2022/05/24 04:44:42;;;;;;;13.88;7.13;;;;;;;12.58;100.00;100074.59;4993764;28;20065;-61
2022/05/24 04:47:10;;;;;;;13.15;7.65;;;;;;;12.55;100.00;100076.69;4993887;28;20054;-61
2022/05/24 04:49:41;;;;;;;12.90;6.88;;;;;;;12.55;100.00;100052.94;4994120;28;20074;-62
2022/05/24 04:52:11;;;;;;;18.90;8.13;;;;;;;12.58;100.00;100032.38;4993807;28;20062;-61
2022/05/24 04:54:40;;;;;;;16.98;8.27;;;;;;;12.66;100.00;100045.75;4994473;28;20551;-61
2022/05/24 04:57:10;;;;;;;15.15;7.80;;;;;;;12.66;100.00;100072.13;4990908;28;20046;-61
2022/05/24 04:59:39;;;;;;;13.50;7.30;;;;;;;12.61;100.00;100095.44;4992439;28;20421;-61
2022/05/24 05:02:14;;;;;;;13.60;7.07;;;;;;;12.75;100.00;100091.63;4993795;28;20073;-61
2022/05/24 05:04:45;;;;;;;13.90;7.82;;;;;;;12.71;100.00;100090.22;4990312;28;20050;-61
2022/05/24 05:07:15;;;;;;;15.63;7.50;;;;;;;12.72;100.00;100097.16;4991180;28;20858;-61
2022/05/24 05:09:44;;;;;;;12.80;7.53;;;;;;;12.56;100.00;100100.28;4978885;28;20572;-61
2022/05/24 05:12:12;;;;;;;14.60;8.13;;;;;;;12.66;100.00;100101.16;4982647;28;20129;-61
2022/05/24 05:14:42;;;;;;;17.33;7.55;;;;;;;12.70;100.00;100083.25;4990026;28;20054;-61
2022/05/24 05:17:11;;;;;;;15.63;8.18;;;;;;;12.65;100.00;100074.91;4994295;28;20497;-61
2022/05/24 05:19:41;;;;;;;16.00;8.32;;;;;;;12.67;100.00;100079.09;4993866;28;20050;-62
2022/05/24 05:22:09;;;;;;;18.42;8.40;;;;;;;12.69;100.00;100078.94;4993562;28;20053;-61
2022/05/24 05:24:37;;;;;;;15.23;8.60;;;;;;;12.63;100.00;100090.03;4991389;28;20082;-61
2022/05/24 05:27:06;;;;;;;15.90;8.52;;;;;;;12.66;100.00;100089.78;4993277;28;20367;-61
2022/05/24 05:32:21;;;;;;;13.93;9.10;;;;;;;12.57;100.00;100120.41;4991535;28;20082;-60
2022/05/24 05:34:51;;;;;;;15.27;9.98;;;;;;;12.66;100.00;100132.81;4992654;28;20061;-62
2022/05/24 05:37:19;;;;;;;14.02;9.65;;;;;;;12.69;100.00;100139.63;4991832;28;20049;-61
2022/05/24 05:39:47;;;;;;;15.45;9.30;;;;;;;12.72;100.00;100130.63;4992299;28;20203;-61
2022/05/24 05:42:16;;;;;;;17.65;9.65;;;;;;;12.75;100.00;100125.06;4990790;28;20039;-61
2022/05/24 05:44:44;;;;;;;19.13;9.90;;;;;;;12.77;100.00;100120.50;4988678;28;20416;-61
2022/05/24 05:47:12;;;;;;;19.52;9.63;;;;;;;12.65;100.00;100127.66;4991859;28;20046;-61
2022/05/24 05:49:41;;;;;;;13.95;9.25;;;;;;;12.70;100.00;100136.03;4992726;28;20053;-61
2022/05/24 05:52:10;;;;;;;14.93;8.55;;;;;;;12.71;100.00;100129.78;4993138;28;20042;-62
2022/05/24 05:54:38;;;;;;;14.00;8.88;;;;;;;12.71;100.00;100136.84;4993917;28;20097;-62
2022/05/24 05:57:07;;;;;;;17.38;9.68;;;;;;;12.76;100.00;100140.78;4992900;28;20038;-62
2022/05/24 05:59:36;;;;;;;16.00;9.77;;;;;;;12.72;100.00;100136.75;4991593;28;20077;-62
2022/05/24 06:02:05;;;;;;;19.65;10.32;;;;;;;12.70;100.00;100140.47;4990874;28;20677;-61
2022/05/24 06:04:33;;;;;;;15.98;10.88;;;;;;;12.64;100.00;100133.94;4992426;28;20104;-61
2022/05/24 06:07:02;;;;;;;20.58;11.40;;;;;;;12.61;100.00;100132.38;4991769;28;20502;-61
2022/05/24 06:09:32;;;;;;;17.17;10.18;;;;;;;12.56;100.00;100133.75;4991609;28;20057;-61
2022/05/24 06:12:00;;;;;;;21.90;10.75;;;;;;;12.73;100.00;100138.41;4990062;28;20501;-61
2022/05/24 06:14:28;;;;;;;15.93;10.68;;;;;;;12.72;100.00;100134.09;4993216;28;20058;-61
2022/05/24 06:17:16;;;;;;;16.52;11.05;;;;;;;12.79;100.00;100143.16;4991214;28;20042;-61
2022/05/24 06:19:45;;;;;;;15.82;9.60;;;;;;;12.78;100.00;100164.41;4992476;28;20084;-61
2022/05/24 06:22:13;;;;;;;15.02;10.57;;;;;;;12.78;100.00;100169.69;4992261;28;20051;-61
2022/05/24 06:24:46;;;;;;;14.90;10.23;;;;;;;12.80;100.00;100176.50;4977201;28;20061;-61
2022/05/24 06:27:15;;;;;;;17.52;10.15;;;;;;;12.82;100.00;100181.66;4989266;28;20109;-62
2022/05/24 06:29:43;;;;;;;17.98;10.07;;;;;;;12.84;100.00;100182.34;4991987;28;20076;-60
2022/05/24 06:32:11;;;;;;;13.98;9.40;;;;;;;12.91;100.00;100183.50;4990002;28;20061;-63
2022/05/24 06:34:40;;;;;;;14.80;10.18;;;;;;;12.93;100.00;100186.84;4992632;28;20041;-62
2022/05/24 06:37:08;;;;;;;15.80;10.52;;;;;;;12.93;100.00;100193.94;4991894;28;20529;-62
2022/05/24 06:39:36;;;;;;;17.10;9.70;;;;;;;12.95;100.00;100207.81;4992034;28;20050;-62
2022/05/24 06:42:06;;;;;;;15.52;8.70;;;;;;;12.91;100.00;100203.75;4990400;28;20137;-62
2022/05/24 06:44:34;;;;;;;14.73;9.30;;;;;;;12.88;100.00;100212.78;4987634;28;20030;-61
2022/05/24 06:47:02;;;;;;;14.02;8.68;;;;;;;12.91;100.00;100212.53;4990630;28;20054;-62
2022/05/24 06:49:30;;;;;;;13.32;8.45;;;;;;;12.95;100.00;100227.13;4990001;28;20146;-62
2022/05/24 06:51:58;;;;;;;13.02;8.45;;;;;;;12.93;100.00;100230.88;4992198;28;20103;-60
2022/05/24 06:54:27;;;;;;;13.85;8.50;;;;;;;13.04;100.00;100227.31;4992010;28;20043;-61
2022/05/24 06:56:55;;;;;;;13.40;9.43;;;;;;;13.08;100.00;100224.28;4990243;28;20073;-63
2022/05/24 07:02:28;;;;;;;14.77;10.13;;;;;;;13.13;100.00;100223.88;4990974;28;20053;-62
2022/05/24 07:04:58;;;;;;;14.23;9.75;;;;;;;13.24;100.00;100223.81;4985392;28;20042;-62
2022/05/24 07:07:27;;;;;;;14.60;9.57;;;;;;;13.33;100.00;100228.28;4990013;28;20510;-62
2022/05/24 07:09:55;;;;;;;13.70;9.57;;;;;;;13.30;100.00;100231.19;4991585;28;20497;-62
2022/05/24 07:12:24;;;;;;;14.45;9.57;;;;;;;13.34;100.00;100229.13;4991397;28;20049;-62
2022/05/24 07:14:54;;;;;;;17.17;9.60;;;;;;;13.42;100.00;100242.53;4987037;28;20614;-62
2022/05/24 07:17:22;;;;;;;15.65;9.48;;;;;;;13.43;100.00;100243.34;4990278;28;20053;-61
2022/05/24 07:19:51;;;;;;;13.50;9.55;;;;;;;13.51;100.00;100241.75;4990859;28;20078;-61
2022/05/24 07:22:20;;;;;;;16.92;9.60;;;;;;;13.67;100.00;100246.53;4988427;28;20050;-59
2022/05/24 07:24:49;;;;;;;15.52;9.35;;;;;;;13.79;100.00;100249.88;4988747;28;20052;-66
2022/05/24 07:27:20;;;;;;;12.98;9.95;;;;;;;13.97;100.00;100257.97;4991368;28;20046;-61
2022/05/24 07:29:49;;;;;;;14.32;10.73;;;;;;;14.20;100.00;100252.44;4991178;28;21807;-62
2022/05/24 07:32:19;;;;;;;15.85;10.48;;;;;;;14.32;100.00;100261.09;4989375;28;20093;-61
2022/05/24 07:34:47;;;;;;;15.23;10.75;;;;;;;14.45;100.00;100255.53;4989481;28;20879;-62
2022/05/24 07:37:17;;;;;;;15.55;9.30;;;;;;;14.60;99.05;100267.38;4988382;28;20109;-62
2022/05/24 07:39:45;;;;;;;13.02;9.07;;;;;;;14.67;97.64;100260.56;4990767;28;20478;-62
2022/05/24 07:47:49;;;;;;;13.20;8.30;;;;;;;14.72;94.12;100283.13;4991100;28;20061;-61
2022/05/24 07:50:17;;;;;;;12.40;8.25;;;;;;;14.92;95.83;100274.19;4992241;28;20046;-61
2022/05/24 07:52:45;;;;;;;10.13;7.70;;;;;;;15.12;96.71;100276.78;4974908;28;20081;-61
2022/05/24 07:55:13;;;;;;;11.73;7.30;;;;;;;15.07;93.63;100273.75;4985920;28;20469;-61
2022/05/24 07:57:41;;;;;;;9.65;7.10;;;;;;;15.16;93.10;100275.50;4990200;28;20042;-62
2022/05/24 08:00:10;;;;;;;14.68;7.32;;;;;;;15.33;95.71;100282.72;4990471;28;20109;-62
2022/05/24 08:02:39;;;;;;;9.05;5.78;;;;;;;15.62;89.23;100280.94;4988154;28;20092;-61
2022/05/24 08:05:10;;;;;;;8.65;5.70;;;;;;;15.55;85.83;100278.84;4988265;28;20529;-61
2022/05/24 08:07:38;;;;;;;9.20;5.38;;;;;;;15.77;88.63;100281.28;4991818;28;20054;-60
2022/05/24 08:10:07;;;;;;;11.95;5.72;;;;;;;16.17;88.63;100288.91;4994380;28;20082;-61
2022/05/24 08:12:44;;;;;;;9.63;5.10;;;;;;;16.39;81.37;100284.97;4996768;28;20457;-61
2022/05/24 08:15:13;;;;;;;9.57;5.40;;;;;;;16.56;81.77;100295.72;4996269;28;20046;-60
2022/05/24 08:17:41;;;;;;;6.15;4.82;;;;;;;16.62;79.28;100295.13;4996062;28;20069;-60
2022/05/24 08:20:12;;;;;;;7.75;5.20;;;;;;;16.70;77.68;100284.59;4993518;28;20443;-61
2022/05/24 08:22:41;;;;;;;7.93;5.18;;;;;;;16.81;79.67;100287.97;4988501;28;20457;-62
2022/05/24 08:25:11;;;;;;;8.48;5.30;;;;;;;17.03;75.90;100287.50;4992384;28;20042;-61
2022/05/24 08:27:40;;;;;;;7.88;5.28;;;;;;;17.06;75.91;100278.41;4989811;28;20065;-62
2022/05/24 08:30:10;;;;;;;6.45;4.80;;;;;;;17.15;74.23;100285.44;4987458;28;20054;-62
2022/05/24 08:32:39;;;;;;;6.40;5.00;;;;;;;17.33;77.08;100285.38;4994320;28;20397;-62
2022/05/24 08:35:10;;;;;;;7.22;5.82;;;;;;;17.60;76.52;100282.66;4993867;28;20047;-63
2022/05/24 08:37:42;;;;;;;10.98;6.53;;;;;;;17.70;74.90;100284.22;4993627;28;20501;-62
2022/05/24 08:40:11;;;;;;;7.32;4.82;;;;;;;17.55;73.45;100285.81;4993783;28;20034;-62
2022/05/24 08:43:01;;;;;;;8.77;3.40;;;;;;;17.53;70.36;100291.31;4991911;28;20089;-62
2022/05/24 08:48:26;;;;;;;5.88;3.05;;;;;;;17.49;71.86;100302.38;4989127;28;20043;-72
2022/05/24 08:51:01;;;;;;;7.50;4.20;;;;;;;17.89;71.79;100300.91;4993088;28;20043;-62
2022/05/24 08:53:36;;;;;;;7.78;3.35;;;;;;;17.89;70.71;100298.25;4994367;28;20405;-61
2022/05/24 08:56:07;;;;;;;6.50;3.20;;;;;;;17.83;69.99;100298.88;4993248;28;20038;-65
2022/05/24 08:58:38;;;;;;;7.50;3.45;;;;;;;17.85;71.26;100303.06;4988790;28;20058;-60
2022/05/24 09:01:15;;;;;;;5.72;3.10;;;;;;;17.83;71.71;100304.19;4989950;28;20065;-62
2022/05/24 09:03:45;;;;;;;6.95;3.80;;;;;;;17.70;70.65;100313.47;4993628;28;20046;-63
2022/05/24 09:06:31;;;;;;;5.43;3.42;;;;;;;17.33;72.52;100322.56;4993996;28;20045;-62
2022/05/24 09:09:14;;;;;;;5.10;3.58;;;;;;;17.45;76.09;100332.94;4993095;28;20049;-62
2022/05/24 09:11:54;;;;;;;5.60;3.80;;;;;;;17.22;80.55;100338.78;4992964;28;20053;-61
2022/05/24 09:14:29;;;;;;;6.47;3.60;;;;;;;17.07;80.61;100351.81;4993329;28;20051;-61
2022/05/24 09:17:11;;;;;;;7.95;3.67;;;;;;;17.02;80.87;100344.28;4989712;28;20054;-61
2022/05/24 09:19:42;;;;;;;4.65;2.65;;;;;;;17.10;78.70;100354.13;4989941;28;20050;-60
2022/05/24 09:22:11;;;;;;;6.15;2.47;;;;;;;17.05;77.51;100359.06;4989820;28;20050;-64
2022/05/24 09:24:45;;;;;;;6.75;3.03;;;;;;;16.58;80.72;100368.09;4990331;28;20478;-61
2022/05/24 09:27:16;;;;;;;7.78;2.78;;;;;;;16.50;82.85;100366.19;4981618;28;20379;-61
2022/05/24 09:30:02;;;;;;;5.45;2.80;;;;;;;16.59;82.79;100368.91;4993533;28;20046;-62
2022/05/24 09:32:40;;;;;;;7.22;3.92;;;;;;;16.93;83.76;100361.13;4992467;28;20046;-62
2022/05/24 09:35:24;;;;;;;6.45;3.90;;;;;;;17.29;83.46;100361.09;4993429;28;20516;-62
2022/05/24 09:38:13;;;;;;;7.43;3.80;;;;;;;17.44;79.94;100368.47;4989123;28;20065;-61
2022/05/24 09:40:49;;;;;;;6.80;3.80;;;;;;;17.76;77.46;100361.69;4979852;28;20062;-63
2022/05/24 09:43:27;;;;;;;12.82;3.92;;;;;;;17.96;77.34;100370.31;4990594;28;20612;-62
2022/05/24 09:46:03;;;;;;;7.03;3.60;;;;;;;17.97;76.27;100370.13;4990829;28;20038;-62
2022/05/24 09:48:33;;;;;;;7.95;3.38;;;;;;;17.77;74.82;100379.31;4994765;28;20446;-61
2022/05/24 09:51:04;;;;;;;5.75;3.20;;;;;;;17.57;76.22;100393.66;4994106;28;20093;-63
2022/05/24 09:53:33;;;;;;;6.53;3.65;;;;;;;17.24;83.66;100397.91;4989594;28;20069;-63
2022/05/24 09:56:19;;;;;;;9.35;4.20;;;;;;;16.87;84.13;100404.22;4989613;28;20042;-62
2022/05/24 09:58:53;;;;;;;7.43;3.65;;;;;;;16.86;84.96;100413.16;4991615;28;20073;-60
2022/05/24 10:01:36;;;;;;;6.85;3.33;;;;;;;16.99;84.74;100412.81;4989925;28;20061;-63
2022/05/24 10:04:20;;;;;;;6.35;2.95;;;;;;;17.39;85.31;100414.97;4990096;28;20057;-63
2022/05/24 10:06:58;;;;;;;8.23;2.75;;;;;;;17.78;79.39;100396.94;4991077;28;20054;-60
2022/05/24 10:09:48;;;;;;;7.05;2.80;;;;;;;18.22;77.94;100404.81;4990876;28;20501;-63
2022/05/24 10:12:32;;;;;;;7.63;2.60;;;;;;;17.95;74.40;100417.34;4989266;28;20370;-60
2022/05/24 10:15:10;;;;;;;4.82;2.25;;;;;;;17.96;76.14;100419.00;4992041;28;20050;-62
2022/05/24 10:17:50;;;;;;;4.15;2.13;;;;;;;18.45;76.57;100426.38;4992499;28;20065;-63
2022/05/24 10:20:29;;;;;;;3.35;1.60;;;;;;;18.57;70.86;100438.38;4988337;28;20050;-62
2022/05/24 10:23:05;;;;;;;4.35;1.10;;;;;;;18.41;67.99;100441.81;4989874;28;20046;-62
2022/05/24 10:25:41;;;;;;;3.10;1.50;;;;;;;18.53;68.82;100449.53;4992584;28;20038;-65
2022/05/24 10:28:27;;;;;;;4.57;1.25;;;;;;;19.08;70.60;100448.97;4992267;28;20047;-64
2022/05/24 10:31:04;;;;;;;3.05;1.35;;;;;;;18.99;68.06;100447.34;4990384;28;20425;-62
2022/05/24 10:39:36;;;;;;;3.42;1.70;;;;;;;18.63;69.59;100449.38;4989935;28;20045;-61
2022/05/24 10:42:15;;;;;;;3.83;1.88;;;;;;;19.06;68.09;100445.66;4991470;28;20042;-64
2022/05/24 10:44:48;;;;;;;3.95;1.85;;;;;;;19.62;68.95;100460.16;4983869;28;20039;-61
2022/05/24 10:47:25;;;;;;;2.63;1.45;;;;;;;19.79;64.78;100459.13;4992342;28;20046;-61
2022/05/24 10:50:00;;;;;;;3.53;1.70;;;;;;;19.98;64.66;100465.94;4987914;28;20050;-61
2022/05/24 10:52:35;;;;;;;4.25;2.10;;;;;;;19.70;62.90;100468.13;4989074;28;20056;-61
2022/05/24 10:55:13;;;;;;;6.03;1.55;;;;;;;19.60;64.84;100465.66;4992302;28;20429;-63
2022/05/24 10:57:46;;;;;;;3.80;1.30;;;;;;;20.14;65.73;100470.41;4988894;28;20366;-63
2022/05/24 11:00:19;;;;;;;5.18;1.48;;;;;;;20.03;61.04;100492.16;4991884;28;20608;-63
2022/05/24 11:02:52;;;;;;;1.65;0.73;;;;;;;19.61;61.12;100510.00;4986762;28;20061;-65
2022/05/24 11:05:24;;;;;;;3.20;0.50;;;;;;;19.70;59.79;100506.34;4989722;28;20039;-63
2022/05/24 11:08:00;;;;;;;1.58;0.60;;;;;;;20.15;61.50;100496.13;4989554;28;20050;-62
2022/05/24 11:10:31;;;;;;;2.35;0.73;;;;;;;20.14;59.51;100498.94;4993194;28;20057;-63
2022/05/24 11:13:08;;;;;;;4.88;0.70;;;;;;;19.96;57.11;100505.34;4992680;28;20042;-63
2022/05/24 11:15:43;;;;;;;1.90;0.60;;;;;;;20.37;59.49;100504.38;4991008;28;20451;-62
2022/05/24 11:18:19;;;;;;;2.33;0.68;;;;;;;20.38;58.61;100508.69;4989246;28;20088;-61
2022/05/24 11:20:54;;;;;;;1.52;0.60;;;;;;;20.41;58.78;100514.53;4993307;28;20054;-63
2022/05/24 11:23:27;;;;;;;3.58;0.82;;;;;;;20.49;57.95;100511.03;4993467;28;20056;-64
2022/05/24 11:26:12;;;;;;;2.75;1.10;;;;;;;20.84;57.65;100505.38;4992935;28;20046;-63
2022/05/24 11:28:47;;;;;;;5.93;1.00;;;;;;;21.18;56.92;100506.84;4992969;28;20112;-61
2022/05/24 11:31:27;;;;;;;2.85;1.10;;;;;;;21.38;57.45;100505.34;4991676;28;20141;-63
2022/05/24 11:33:57;;;;;;;2.78;1.00;;;;;;;21.26;55.04;100506.78;4989065;28;20112;-62
2022/05/24 11:36:43;;;;;;;1.60;0.90;;;;;;;21.26;55.23;100504.09;4990607;28;20105;-65
2022/05/24 11:39:18;;;;;;;3.67;1.20;;;;;;;21.66;56.68;100506.66;4973289;28;20058;-66
2022/05/24 11:41:46;;;;;;;3.35;1.10;;;;;;;22.06;55.53;100507.25;4979449;28;20061;-63
2022/05/24 11:44:33;;;;;;;3.00;1.15;;;;;;;22.49;57.19;100514.69;4992526;28;20437;-61
2022/05/24 11:47:03;;;;;;;3.22;1.17;;;;;;;22.33;54.04;100537.91;4992009;28;20038;-62
2022/05/24 11:49:59;;;;;;;3.45;1.10;;;;;;;21.32;54.09;100538.13;4989181;28;20070;-61
2022/05/24 11:53:02;;;;;;;3.25;0.90;;;;;;;21.01;54.73;100540.84;4966200;28;20401;-61
2022/05/24 11:55:45;;;;;;;2.42;1.20;;;;;;;20.60;56.69;100549.84;4958437;28;20398;-61
2022/05/24 11:58:49;;;;;;;3.78;0.93;;;;;;;19.91;66.50;100556.53;4987776;28;20455;-60
2022/05/24 12:01:46;;;;;;;2.25;0.90;;;;;;;20.15;66.34;100567.34;4992383;28;20054;-63
2022/05/24 12:10:52;;;;;;;2.70;1.10;;;;;;;19.74;72.63;100574.34;4989696;28;20038;-61
2022/05/24 12:13:31;;;;;;;1.50;0.80;;;;;;;19.39;71.68;100581.66;4989397;28;20058;-60
2022/05/24 12:16:03;;;;;;;1.67;0.70;;;;;;;19.68;69.84;100590.19;4991871;28;20042;-61
2022/05/24 12:18:55;;;;;;;3.08;0.55;;;;;;;18.96;67.38;100582.69;4992092;28;20042;-60
2022/05/24 12:21:59;;;;;;;2.40;0.70;;;;;;;18.54;69.67;100592.28;4988840;28;20065;-62